sensor_id;sensor_type;location;lat;lon;timestamp;P1;durP1;ratioP1;P2;durP2;ratioP2
10458;SDS011;5277;48.722;8.736;2022-12-10T00:01:23;40.20;;;21.13;;
10458;SDS011;5277;48.722;8.736;2022-12-10T00:03:49;37.10;;;20.30;;
10458;SDS011;5277;48.722;8.736;2022-12-10T00:06:17;40.33;;;21.90;;
10458;SDS011;5277;48.722;8.736;2022-12-10T00:08:44;47.37;;;23.70;;
10458;SDS011;5277;48.722;8.736;2022-12-10T00:11:11;45.03;;;23.50;;
10458;SDS011;5277;48.722;8.736;2022-12-10T00:13:38;42.83;;;23.30;;
10458;SDS011;5277;48.722;8.736;2022-12-10T00:16:05;39.40;;;23.00;;
10458;SDS011;5277;48.722;8.736;2022-12-10T00:18:32;35.47;;;20.37;;
10458;SDS011;5277;48.722;8.736;2022-12-10T00:20:58;43.07;;;22.23;;
10458;SDS011;5277;48.722;8.736;2022-12-10T00:23:31;37.63;;;21.03;;
10458;SDS011;5277;48.722;8.736;2022-12-10T00:26:01;38.47;;;21.03;;
10458;SDS011;5277;48.722;8.736;2022-12-10T00:28:31;38.10;;;20.73;;
10458;SDS011;5277;48.722;8.736;2022-12-10T00:31:19;39.50;;;21.20;;
10458;SDS011;5277;48.722;8.736;2022-12-10T00:33:45;43.20;;;21.83;;
10458;SDS011;5277;48.722;8.736;2022-12-10T00:36:12;37.97;;;22.07;;
10458;SDS011;5277;48.722;8.736;2022-12-10T00:38:40;45.90;;;22.43;;
10458;SDS011;5277;48.722;8.736;2022-12-10T00:41:06;41.57;;;23.43;;
10458;SDS011;5277;48.722;8.736;2022-12-10T00:43:32;40.73;;;23.03;;
10458;SDS011;5277;48.722;8.736;2022-12-10T00:45:58;40.03;;;23.03;;
10458;SDS011;5277;48.722;8.736;2022-12-10T00:48:24;42.00;;;21.90;;
10458;SDS011;5277;48.722;8.736;2022-12-10T00:51:00;36.87;;;21.70;;
10458;SDS011;5277;48.722;8.736;2022-12-10T00:53:31;37.73;;;22.03;;
10458;SDS011;5277;48.722;8.736;2022-12-10T00:55:58;35.07;;;20.63;;
10458;SDS011;5277;48.722;8.736;2022-12-10T00:58:28;43.17;;;22.97;;
10458;SDS011;5277;48.722;8.736;2022-12-10T01:01:05;44.37;;;25.80;;
10458;SDS011;5277;48.722;8.736;2022-12-10T01:03:35;41.30;;;23.23;;
10458;SDS011;5277;48.722;8.736;2022-12-10T01:06:35;36.70;;;21.40;;
10458;SDS011;5277;48.722;8.736;2022-12-10T01:08:56;36.47;;;20.33;;
10458;SDS011;5277;48.722;8.736;2022-12-10T01:11:24;34.07;;;20.10;;
10458;SDS011;5277;48.722;8.736;2022-12-10T01:13:53;37.70;;;20.70;;
10458;SDS011;5277;48.722;8.736;2022-12-10T01:16:19;38.37;;;22.20;;
10458;SDS011;5277;48.722;8.736;2022-12-10T01:18:46;41.87;;;22.97;;
10458;SDS011;5277;48.722;8.736;2022-12-10T01:21:14;36.57;;;22.67;;
10458;SDS011;5277;48.722;8.736;2022-12-10T01:23:41;39.77;;;22.90;;
10458;SDS011;5277;48.722;8.736;2022-12-10T01:26:10;36.90;;;22.07;;
10458;SDS011;5277;48.722;8.736;2022-12-10T01:28:38;42.63;;;21.90;;
10458;SDS011;5277;48.722;8.736;2022-12-10T01:31:06;36.90;;;21.03;;
10458;SDS011;5277;48.722;8.736;2022-12-10T01:33:34;35.33;;;20.90;;
10458;SDS011;5277;48.722;8.736;2022-12-10T01:36:02;37.63;;;21.97;;
10458;SDS011;5277;48.722;8.736;2022-12-10T01:38:29;36.37;;;22.00;;
10458;SDS011;5277;48.722;8.736;2022-12-10T01:40:54;37.77;;;21.00;;
10458;SDS011;5277;48.722;8.736;2022-12-10T01:43:20;37.03;;;22.43;;
10458;SDS011;5277;48.722;8.736;2022-12-10T01:45:45;39.10;;;22.80;;
10458;SDS011;5277;48.722;8.736;2022-12-10T01:48:14;38.47;;;21.80;;
10458;SDS011;5277;48.722;8.736;2022-12-10T01:50:39;38.67;;;21.33;;
10458;SDS011;5277;48.722;8.736;2022-12-10T01:53:05;36.00;;;21.47;;
10458;SDS011;5277;48.722;8.736;2022-12-10T01:58:09;37.00;;;21.33;;
10458;SDS011;5277;48.722;8.736;2022-12-10T02:00:36;39.27;;;21.87;;
10458;SDS011;5277;48.722;8.736;2022-12-10T02:03:10;36.13;;;23.03;;
10458;SDS011;5277;48.722;8.736;2022-12-10T02:05:43;32.47;;;19.67;;
10458;SDS011;5277;48.722;8.736;2022-12-10T02:08:26;28.97;;;18.77;;
10458;SDS011;5277;48.722;8.736;2022-12-10T02:13:51;40.30;;;20.53;;
10458;SDS011;5277;48.722;8.736;2022-12-10T02:16:34;37.13;;;21.93;;
10458;SDS011;5277;48.722;8.736;2022-12-10T02:19:14;36.43;;;21.50;;
10458;SDS011;5277;48.722;8.736;2022-12-10T02:21:47;37.10;;;22.60;;
10458;SDS011;5277;48.722;8.736;2022-12-10T02:24:16;34.80;;;21.80;;
10458;SDS011;5277;48.722;8.736;2022-12-10T02:26:59;37.27;;;22.57;;
10458;SDS011;5277;48.722;8.736;2022-12-10T02:29:46;37.13;;;22.30;;
10458;SDS011;5277;48.722;8.736;2022-12-10T02:32:16;36.57;;;21.97;;
10458;SDS011;5277;48.722;8.736;2022-12-10T02:34:47;40.07;;;22.00;;
10458;SDS011;5277;48.722;8.736;2022-12-10T02:37:23;35.50;;;22.07;;
10458;SDS011;5277;48.722;8.736;2022-12-10T02:40:03;35.83;;;21.40;;
10458;SDS011;5277;48.722;8.736;2022-12-10T02:42:34;40.03;;;24.57;;
10458;SDS011;5277;48.722;8.736;2022-12-10T02:45:03;36.23;;;20.17;;
10458;SDS011;5277;48.722;8.736;2022-12-10T02:47:30;33.77;;;20.10;;
10458;SDS011;5277;48.722;8.736;2022-12-10T02:49:56;32.27;;;18.97;;
10458;SDS011;5277;48.722;8.736;2022-12-10T02:52:23;34.90;;;20.50;;
10458;SDS011;5277;48.722;8.736;2022-12-10T02:54:50;34.57;;;20.63;;
10458;SDS011;5277;48.722;8.736;2022-12-10T02:57:22;30.53;;;19.20;;
10458;SDS011;5277;48.722;8.736;2022-12-10T03:02:40;33.90;;;20.00;;
10458;SDS011;5277;48.722;8.736;2022-12-10T03:07:59;32.30;;;20.33;;
10458;SDS011;5277;48.722;8.736;2022-12-10T03:10:35;38.40;;;23.23;;
10458;SDS011;5277;48.722;8.736;2022-12-10T03:13:10;37.00;;;22.13;;
10458;SDS011;5277;48.722;8.736;2022-12-10T03:15:40;39.00;;;23.87;;
10458;SDS011;5277;48.722;8.736;2022-12-10T03:18:08;34.80;;;21.63;;
10458;SDS011;5277;48.722;8.736;2022-12-10T03:20:37;32.43;;;20.37;;
10458;SDS011;5277;48.722;8.736;2022-12-10T03:23:05;32.73;;;20.10;;
10458;SDS011;5277;48.722;8.736;2022-12-10T03:25:34;28.70;;;18.63;;
10458;SDS011;5277;48.722;8.736;2022-12-10T03:28:02;38.17;;;20.53;;
10458;SDS011;5277;48.722;8.736;2022-12-10T03:30:29;34.17;;;20.47;;
10458;SDS011;5277;48.722;8.736;2022-12-10T03:32:57;31.73;;;19.93;;
10458;SDS011;5277;48.722;8.736;2022-12-10T03:35:22;34.23;;;20.03;;
10458;SDS011;5277;48.722;8.736;2022-12-10T03:37:49;32.47;;;20.50;;
10458;SDS011;5277;48.722;8.736;2022-12-10T03:40:15;34.53;;;20.20;;
10458;SDS011;5277;48.722;8.736;2022-12-10T03:42:43;32.87;;;20.30;;
10458;SDS011;5277;48.722;8.736;2022-12-10T03:45:09;39.17;;;21.23;;
10458;SDS011;5277;48.722;8.736;2022-12-10T03:47:34;34.07;;;20.50;;
10458;SDS011;5277;48.722;8.736;2022-12-10T03:50:00;32.67;;;20.30;;
10458;SDS011;5277;48.722;8.736;2022-12-10T03:52:26;34.03;;;20.73;;
10458;SDS011;5277;48.722;8.736;2022-12-10T03:54:51;32.77;;;20.30;;
10458;SDS011;5277;48.722;8.736;2022-12-10T03:57:17;29.37;;;18.23;;
10458;SDS011;5277;48.722;8.736;2022-12-10T03:59:42;30.77;;;19.33;;
10458;SDS011;5277;48.722;8.736;2022-12-10T04:02:08;30.00;;;18.80;;
10458;SDS011;5277;48.722;8.736;2022-12-10T04:04:35;34.13;;;21.07;;
10458;SDS011;5277;48.722;8.736;2022-12-10T04:07:01;31.30;;;20.20;;
10458;SDS011;5277;48.722;8.736;2022-12-10T04:09:27;32.93;;;19.97;;
10458;SDS011;5277;48.722;8.736;2022-12-10T04:11:58;28.73;;;18.00;;
10458;SDS011;5277;48.722;8.736;2022-12-10T04:14:24;29.33;;;18.47;;
10458;SDS011;5277;48.722;8.736;2022-12-10T04:17:09;35.50;;;20.70;;
10458;SDS011;5277;48.722;8.736;2022-12-10T04:19:35;34.87;;;19.33;;
10458;SDS011;5277;48.722;8.736;2022-12-10T04:22:01;32.37;;;19.67;;
10458;SDS011;5277;48.722;8.736;2022-12-10T04:24:45;31.03;;;20.37;;
10458;SDS011;5277;48.722;8.736;2022-12-10T04:27:30;34.87;;;19.20;;
10458;SDS011;5277;48.722;8.736;2022-12-10T04:29:58;35.77;;;21.47;;
10458;SDS011;5277;48.722;8.736;2022-12-10T04:32:25;31.57;;;20.07;;
10458;SDS011;5277;48.722;8.736;2022-12-10T04:34:52;31.03;;;19.93;;
10458;SDS011;5277;48.722;8.736;2022-12-10T04:37:18;31.43;;;18.27;;
10458;SDS011;5277;48.722;8.736;2022-12-10T04:39:45;30.27;;;18.73;;
10458;SDS011;5277;48.722;8.736;2022-12-10T04:42:11;31.20;;;19.23;;
10458;SDS011;5277;48.722;8.736;2022-12-10T04:44:38;30.20;;;18.83;;
10458;SDS011;5277;48.722;8.736;2022-12-10T04:47:04;31.70;;;19.80;;
10458;SDS011;5277;48.722;8.736;2022-12-10T04:49:31;32.33;;;20.00;;
10458;SDS011;5277;48.722;8.736;2022-12-10T04:51:56;27.23;;;17.67;;
10458;SDS011;5277;48.722;8.736;2022-12-10T04:54:22;30.47;;;18.60;;
10458;SDS011;5277;48.722;8.736;2022-12-10T04:56:48;31.87;;;18.40;;
10458;SDS011;5277;48.722;8.736;2022-12-10T04:59:14;29.93;;;17.73;;
10458;SDS011;5277;48.722;8.736;2022-12-10T05:01:40;30.50;;;18.83;;
10458;SDS011;5277;48.722;8.736;2022-12-10T05:04:09;29.90;;;18.60;;
10458;SDS011;5277;48.722;8.736;2022-12-10T05:06:48;33.80;;;19.93;;
10458;SDS011;5277;48.722;8.736;2022-12-10T05:09:55;27.50;;;17.93;;
10458;SDS011;5277;48.722;8.736;2022-12-10T05:12:47;30.90;;;18.23;;
10458;SDS011;5277;48.722;8.736;2022-12-10T05:15:13;32.10;;;18.83;;
10458;SDS011;5277;48.722;8.736;2022-12-10T05:17:41;29.90;;;18.53;;
10458;SDS011;5277;48.722;8.736;2022-12-10T05:20:10;30.00;;;19.33;;
10458;SDS011;5277;48.722;8.736;2022-12-10T05:22:39;30.47;;;19.87;;
10458;SDS011;5277;48.722;8.736;2022-12-10T05:28:26;33.90;;;21.10;;
10458;SDS011;5277;48.722;8.736;2022-12-10T05:31:05;35.50;;;20.57;;
10458;SDS011;5277;48.722;8.736;2022-12-10T05:33:45;33.07;;;19.90;;
10458;SDS011;5277;48.722;8.736;2022-12-10T05:36:12;31.80;;;18.93;;
10458;SDS011;5277;48.722;8.736;2022-12-10T05:38:39;34.90;;;20.53;;
10458;SDS011;5277;48.722;8.736;2022-12-10T05:41:06;32.33;;;19.30;;
10458;SDS011;5277;48.722;8.736;2022-12-10T05:43:35;33.60;;;20.20;;
10458;SDS011;5277;48.722;8.736;2022-12-10T05:46:15;33.07;;;20.23;;
10458;SDS011;5277;48.722;8.736;2022-12-10T05:48:52;34.37;;;20.00;;
10458;SDS011;5277;48.722;8.736;2022-12-10T05:51:22;32.00;;;20.10;;
10458;SDS011;5277;48.722;8.736;2022-12-10T05:53:51;34.73;;;20.53;;
10458;SDS011;5277;48.722;8.736;2022-12-10T05:56:24;33.97;;;20.83;;
10458;SDS011;5277;48.722;8.736;2022-12-10T05:58:55;31.07;;;19.00;;
10458;SDS011;5277;48.722;8.736;2022-12-10T06:01:25;38.77;;;20.20;;
10458;SDS011;5277;48.722;8.736;2022-12-10T06:03:53;36.83;;;20.80;;
10458;SDS011;5277;48.722;8.736;2022-12-10T06:06:29;34.80;;;19.70;;
10458;SDS011;5277;48.722;8.736;2022-12-10T06:08:59;30.23;;;19.13;;
10458;SDS011;5277;48.722;8.736;2022-12-10T06:11:44;31.23;;;18.57;;
10458;SDS011;5277;48.722;8.736;2022-12-10T06:14:09;31.07;;;19.23;;
10458;SDS011;5277;48.722;8.736;2022-12-10T06:16:36;30.97;;;19.37;;
10458;SDS011;5277;48.722;8.736;2022-12-10T06:19:01;32.03;;;19.50;;
10458;SDS011;5277;48.722;8.736;2022-12-10T06:21:27;35.13;;;19.40;;
10458;SDS011;5277;48.722;8.736;2022-12-10T06:23:53;33.27;;;20.47;;
10458;SDS011;5277;48.722;8.736;2022-12-10T06:26:20;33.17;;;20.33;;
10458;SDS011;5277;48.722;8.736;2022-12-10T06:28:47;36.10;;;20.53;;
10458;SDS011;5277;48.722;8.736;2022-12-10T06:31:14;33.57;;;20.90;;
10458;SDS011;5277;48.722;8.736;2022-12-10T06:33:40;36.67;;;20.37;;
10458;SDS011;5277;48.722;8.736;2022-12-10T06:36:07;35.30;;;21.23;;
10458;SDS011;5277;48.722;8.736;2022-12-10T06:38:34;40.67;;;21.43;;
10458;SDS011;5277;48.722;8.736;2022-12-10T06:41:05;35.27;;;21.37;;
10458;SDS011;5277;48.722;8.736;2022-12-10T06:44:01;37.80;;;21.67;;
10458;SDS011;5277;48.722;8.736;2022-12-10T06:46:46;37.20;;;22.03;;
10458;SDS011;5277;48.722;8.736;2022-12-10T06:49:19;35.30;;;21.33;;
10458;SDS011;5277;48.722;8.736;2022-12-10T06:52:25;36.87;;;21.17;;
10458;SDS011;5277;48.722;8.736;2022-12-10T06:55:00;37.00;;;21.40;;
10458;SDS011;5277;48.722;8.736;2022-12-10T06:57:28;33.93;;;21.20;;
10458;SDS011;5277;48.722;8.736;2022-12-10T07:00:11;35.40;;;20.83;;
10458;SDS011;5277;48.722;8.736;2022-12-10T07:02:38;37.83;;;22.37;;
10458;SDS011;5277;48.722;8.736;2022-12-10T07:05:03;34.27;;;21.43;;
10458;SDS011;5277;48.722;8.736;2022-12-10T07:07:32;35.53;;;21.33;;
10458;SDS011;5277;48.722;8.736;2022-12-10T07:10:03;38.00;;;21.67;;
10458;SDS011;5277;48.722;8.736;2022-12-10T07:12:41;33.57;;;21.10;;
10458;SDS011;5277;48.722;8.736;2022-12-10T07:15:10;35.37;;;22.00;;
10458;SDS011;5277;48.722;8.736;2022-12-10T07:17:45;34.50;;;21.50;;
10458;SDS011;5277;48.722;8.736;2022-12-10T07:20:13;34.33;;;21.10;;
10458;SDS011;5277;48.722;8.736;2022-12-10T07:22:51;34.97;;;21.77;;
10458;SDS011;5277;48.722;8.736;2022-12-10T07:25:33;34.23;;;21.47;;
10458;SDS011;5277;48.722;8.736;2022-12-10T07:28:02;36.13;;;21.07;;
10458;SDS011;5277;48.722;8.736;2022-12-10T07:30:33;36.90;;;20.80;;
10458;SDS011;5277;48.722;8.736;2022-12-10T07:33:07;35.67;;;21.10;;
10458;SDS011;5277;48.722;8.736;2022-12-10T07:35:32;34.87;;;20.80;;
10458;SDS011;5277;48.722;8.736;2022-12-10T07:38:02;34.53;;;20.40;;
10458;SDS011;5277;48.722;8.736;2022-12-10T07:40:28;37.37;;;21.57;;
10458;SDS011;5277;48.722;8.736;2022-12-10T07:42:57;35.40;;;20.67;;
10458;SDS011;5277;48.722;8.736;2022-12-10T07:45:27;31.97;;;21.03;;
10458;SDS011;5277;48.722;8.736;2022-12-10T07:48:11;36.17;;;21.30;;
10458;SDS011;5277;48.722;8.736;2022-12-10T07:51:02;38.20;;;21.33;;
10458;SDS011;5277;48.722;8.736;2022-12-10T07:54:00;37.87;;;22.33;;
10458;SDS011;5277;48.722;8.736;2022-12-10T07:56:41;35.10;;;21.40;;
10458;SDS011;5277;48.722;8.736;2022-12-10T07:59:53;34.13;;;20.50;;
10458;SDS011;5277;48.722;8.736;2022-12-10T08:02:21;33.83;;;21.13;;
10458;SDS011;5277;48.722;8.736;2022-12-10T08:04:50;36.60;;;21.83;;
10458;SDS011;5277;48.722;8.736;2022-12-10T08:07:19;37.40;;;20.80;;
10458;SDS011;5277;48.722;8.736;2022-12-10T08:09:45;34.20;;;20.60;;
10458;SDS011;5277;48.722;8.736;2022-12-10T08:12:16;35.47;;;21.77;;
10458;SDS011;5277;48.722;8.736;2022-12-10T08:14:44;34.30;;;21.30;;
10458;SDS011;5277;48.722;8.736;2022-12-10T08:17:13;36.13;;;21.40;;
10458;SDS011;5277;48.722;8.736;2022-12-10T08:19:38;35.13;;;21.17;;
10458;SDS011;5277;48.722;8.736;2022-12-10T08:22:07;31.33;;;19.63;;
10458;SDS011;5277;48.722;8.736;2022-12-10T08:24:35;36.20;;;19.90;;
10458;SDS011;5277;48.722;8.736;2022-12-10T08:27:18;32.20;;;19.40;;
10458;SDS011;5277;48.722;8.736;2022-12-10T08:29:52;32.93;;;19.77;;
10458;SDS011;5277;48.722;8.736;2022-12-10T08:32:30;37.80;;;22.07;;
10458;SDS011;5277;48.722;8.736;2022-12-10T08:34:55;35.80;;;21.17;;
10458;SDS011;5277;48.722;8.736;2022-12-10T08:37:24;36.83;;;21.43;;
10458;SDS011;5277;48.722;8.736;2022-12-10T08:40:03;38.40;;;22.93;;
10458;SDS011;5277;48.722;8.736;2022-12-10T08:42:35;34.80;;;21.23;;
10458;SDS011;5277;48.722;8.736;2022-12-10T08:45:00;31.37;;;19.70;;
10458;SDS011;5277;48.722;8.736;2022-12-10T08:47:26;33.00;;;20.00;;
10458;SDS011;5277;48.722;8.736;2022-12-10T08:49:52;34.37;;;20.27;;
10458;SDS011;5277;48.722;8.736;2022-12-10T08:52:27;29.73;;;18.80;;
10458;SDS011;5277;48.722;8.736;2022-12-10T08:54:54;30.40;;;19.10;;
10458;SDS011;5277;48.722;8.736;2022-12-10T08:57:25;31.67;;;19.60;;
10458;SDS011;5277;48.722;8.736;2022-12-10T08:59:54;32.80;;;20.33;;
10458;SDS011;5277;48.722;8.736;2022-12-10T09:02:22;29.83;;;18.77;;
10458;SDS011;5277;48.722;8.736;2022-12-10T09:05:31;32.03;;;18.97;;
10458;SDS011;5277;48.722;8.736;2022-12-10T09:08:04;39.10;;;21.37;;
10458;SDS011;5277;48.722;8.736;2022-12-10T09:10:38;36.53;;;21.23;;
10458;SDS011;5277;48.722;8.736;2022-12-10T09:13:07;43.40;;;22.30;;
10458;SDS011;5277;48.722;8.736;2022-12-10T09:15:56;39.67;;;20.73;;
10458;SDS011;5277;48.722;8.736;2022-12-10T09:18:28;28.90;;;17.87;;
10458;SDS011;5277;48.722;8.736;2022-12-10T09:20:57;30.33;;;17.47;;
10458;SDS011;5277;48.722;8.736;2022-12-10T09:23:42;28.13;;;17.70;;
10458;SDS011;5277;48.722;8.736;2022-12-10T09:26:11;28.57;;;17.80;;
10458;SDS011;5277;48.722;8.736;2022-12-10T09:28:53;39.43;;;22.53;;
10458;SDS011;5277;48.722;8.736;2022-12-10T09:31:19;31.83;;;19.53;;
10458;SDS011;5277;48.722;8.736;2022-12-10T09:33:52;50.57;;;27.00;;
10458;SDS011;5277;48.722;8.736;2022-12-10T09:36:23;42.60;;;22.37;;
10458;SDS011;5277;48.722;8.736;2022-12-10T09:39:04;38.73;;;21.17;;
10458;SDS011;5277;48.722;8.736;2022-12-10T09:41:40;42.00;;;22.60;;
10458;SDS011;5277;48.722;8.736;2022-12-10T09:47:09;32.27;;;18.67;;
10458;SDS011;5277;48.722;8.736;2022-12-10T09:49:48;28.93;;;17.87;;
10458;SDS011;5277;48.722;8.736;2022-12-10T09:52:36;33.10;;;19.73;;
10458;SDS011;5277;48.722;8.736;2022-12-10T09:55:08;33.53;;;20.17;;
10458;SDS011;5277;48.722;8.736;2022-12-10T09:58:01;33.33;;;19.10;;
10458;SDS011;5277;48.722;8.736;2022-12-10T10:00:37;36.57;;;21.17;;
10458;SDS011;5277;48.722;8.736;2022-12-10T10:03:10;39.97;;;24.27;;
10458;SDS011;5277;48.722;8.736;2022-12-10T10:05:49;42.87;;;25.67;;
10458;SDS011;5277;48.722;8.736;2022-12-10T10:08:33;32.87;;;20.73;;
10458;SDS011;5277;48.722;8.736;2022-12-10T10:11:09;26.70;;;16.53;;
10458;SDS011;5277;48.722;8.736;2022-12-10T10:13:45;25.27;;;15.77;;
10458;SDS011;5277;48.722;8.736;2022-12-10T10:17:07;26.43;;;16.30;;
10458;SDS011;5277;48.722;8.736;2022-12-10T10:19:53;27.23;;;16.60;;
10458;SDS011;5277;48.722;8.736;2022-12-10T10:22:24;27.33;;;16.63;;
10458;SDS011;5277;48.722;8.736;2022-12-10T10:24:51;24.33;;;15.37;;
10458;SDS011;5277;48.722;8.736;2022-12-10T10:27:21;25.70;;;15.63;;
10458;SDS011;5277;48.722;8.736;2022-12-10T10:29:57;27.13;;;17.27;;
10458;SDS011;5277;48.722;8.736;2022-12-10T10:35:33;31.40;;;18.80;;
10458;SDS011;5277;48.722;8.736;2022-12-10T10:38:23;23.10;;;15.20;;
10458;SDS011;5277;48.722;8.736;2022-12-10T10:41:03;23.50;;;14.90;;
10458;SDS011;5277;48.722;8.736;2022-12-10T10:43:48;26.03;;;16.13;;
10458;SDS011;5277;48.722;8.736;2022-12-10T10:46:28;25.70;;;15.70;;
10458;SDS011;5277;48.722;8.736;2022-12-10T10:51:57;24.90;;;14.87;;
10458;SDS011;5277;48.722;8.736;2022-12-10T10:54:50;23.50;;;15.47;;
10458;SDS011;5277;48.722;8.736;2022-12-10T10:57:35;24.60;;;15.37;;
10458;SDS011;5277;48.722;8.736;2022-12-10T11:00:28;23.23;;;15.30;;
10458;SDS011;5277;48.722;8.736;2022-12-10T11:03:14;25.70;;;15.80;;
10458;SDS011;5277;48.722;8.736;2022-12-10T11:05:43;25.70;;;16.03;;
10458;SDS011;5277;48.722;8.736;2022-12-10T11:08:29;21.83;;;14.83;;
10458;SDS011;5277;48.722;8.736;2022-12-10T11:14:38;23.10;;;14.03;;
10458;SDS011;5277;48.722;8.736;2022-12-10T11:17:28;23.53;;;14.07;;
10458;SDS011;5277;48.722;8.736;2022-12-10T11:20:28;22.20;;;14.80;;
10458;SDS011;5277;48.722;8.736;2022-12-10T11:23:01;19.57;;;13.47;;
10458;SDS011;5277;48.722;8.736;2022-12-10T11:25:57;20.80;;;14.17;;
10458;SDS011;5277;48.722;8.736;2022-12-10T11:34:15;19.27;;;13.47;;
10458;SDS011;5277;48.722;8.736;2022-12-10T11:40:02;20.53;;;14.07;;
10458;SDS011;5277;48.722;8.736;2022-12-10T11:42:49;20.77;;;14.27;;
10458;SDS011;5277;48.722;8.736;2022-12-10T11:45:23;20.10;;;13.07;;
10458;SDS011;5277;48.722;8.736;2022-12-10T11:51:04;20.33;;;13.20;;
10458;SDS011;5277;48.722;8.736;2022-12-10T12:08:07;19.00;;;12.73;;
10458;SDS011;5277;48.722;8.736;2022-12-10T12:16:40;19.97;;;12.23;;
10458;SDS011;5277;48.722;8.736;2022-12-10T12:19:38;20.23;;;12.83;;
10458;SDS011;5277;48.722;8.736;2022-12-10T12:22:26;21.20;;;12.90;;
10458;SDS011;5277;48.722;8.736;2022-12-10T12:25:05;21.53;;;13.60;;
10458;SDS011;5277;48.722;8.736;2022-12-10T12:37:16;21.37;;;13.27;;
10458;SDS011;5277;48.722;8.736;2022-12-10T12:40:00;19.83;;;12.67;;
10458;SDS011;5277;48.722;8.736;2022-12-10T12:45:29;18.80;;;11.87;;
10458;SDS011;5277;48.722;8.736;2022-12-10T12:51:05;19.53;;;12.10;;
10458;SDS011;5277;48.722;8.736;2022-12-10T12:53:48;23.10;;;12.83;;
10458;SDS011;5277;48.722;8.736;2022-12-10T12:56:33;21.33;;;12.70;;
10458;SDS011;5277;48.722;8.736;2022-12-10T13:08:28;21.10;;;13.13;;
10458;SDS011;5277;48.722;8.736;2022-12-10T13:11:14;21.50;;;13.57;;
10458;SDS011;5277;48.722;8.736;2022-12-10T13:14:30;21.50;;;13.40;;
10458;SDS011;5277;48.722;8.736;2022-12-10T13:19:41;20.20;;;13.40;;
10458;SDS011;5277;48.722;8.736;2022-12-10T13:25:14;19.97;;;12.80;;
10458;SDS011;5277;48.722;8.736;2022-12-10T13:28:15;20.47;;;12.37;;
10458;SDS011;5277;48.722;8.736;2022-12-10T13:30:44;18.03;;;12.17;;
10458;SDS011;5277;48.722;8.736;2022-12-10T13:39:43;21.80;;;12.80;;
10458;SDS011;5277;48.722;8.736;2022-12-10T13:47:50;22.13;;;13.57;;
10458;SDS011;5277;48.722;8.736;2022-12-10T13:56:45;17.67;;;10.93;;
10458;SDS011;5277;48.722;8.736;2022-12-10T14:08:11;20.23;;;11.87;;
10458;SDS011;5277;48.722;8.736;2022-12-10T14:10:51;19.07;;;11.57;;
10458;SDS011;5277;48.722;8.736;2022-12-10T14:13:21;17.20;;;10.90;;
10458;SDS011;5277;48.722;8.736;2022-12-10T14:16:02;26.00;;;14.77;;
10458;SDS011;5277;48.722;8.736;2022-12-10T14:18:35;20.60;;;12.90;;
10458;SDS011;5277;48.722;8.736;2022-12-10T14:21:18;19.67;;;12.23;;
10458;SDS011;5277;48.722;8.736;2022-12-10T14:23:46;22.13;;;13.17;;
10458;SDS011;5277;48.722;8.736;2022-12-10T14:29:43;29.00;;;16.50;;
10458;SDS011;5277;48.722;8.736;2022-12-10T14:32:19;29.37;;;17.30;;
10458;SDS011;5277;48.722;8.736;2022-12-10T14:35:38;25.50;;;13.73;;
10458;SDS011;5277;48.722;8.736;2022-12-10T14:38:37;22.40;;;14.23;;
10458;SDS011;5277;48.722;8.736;2022-12-10T14:41:17;19.83;;;12.63;;
10458;SDS011;5277;48.722;8.736;2022-12-10T14:43:50;18.53;;;12.20;;
10458;SDS011;5277;48.722;8.736;2022-12-10T14:46:32;21.90;;;14.53;;
10458;SDS011;5277;48.722;8.736;2022-12-10T14:49:25;23.70;;;12.93;;
10458;SDS011;5277;48.722;8.736;2022-12-10T14:51:51;19.70;;;12.43;;
10458;SDS011;5277;48.722;8.736;2022-12-10T14:54:25;20.23;;;12.83;;
10458;SDS011;5277;48.722;8.736;2022-12-10T14:56:56;18.97;;;12.07;;
10458;SDS011;5277;48.722;8.736;2022-12-10T14:59:26;19.57;;;12.13;;
10458;SDS011;5277;48.722;8.736;2022-12-10T15:02:17;21.90;;;13.90;;
10458;SDS011;5277;48.722;8.736;2022-12-10T15:05:15;21.27;;;14.10;;
10458;SDS011;5277;48.722;8.736;2022-12-10T15:07:59;21.17;;;12.90;;
10458;SDS011;5277;48.722;8.736;2022-12-10T15:10:32;23.33;;;15.27;;
10458;SDS011;5277;48.722;8.736;2022-12-10T15:13:02;24.37;;;16.07;;
10458;SDS011;5277;48.722;8.736;2022-12-10T15:15:33;19.13;;;12.33;;
10458;SDS011;5277;48.722;8.736;2022-12-10T15:25:51;19.77;;;12.00;;
10458;SDS011;5277;48.722;8.736;2022-12-10T15:33:55;16.70;;;11.10;;
10458;SDS011;5277;48.722;8.736;2022-12-10T15:36:27;19.13;;;11.40;;
10458;SDS011;5277;48.722;8.736;2022-12-10T15:39:09;16.70;;;11.33;;
10458;SDS011;5277;48.722;8.736;2022-12-10T15:41:46;15.13;;;10.73;;
10458;SDS011;5277;48.722;8.736;2022-12-10T15:46:57;16.33;;;10.77;;
10458;SDS011;5277;48.722;8.736;2022-12-10T15:49:23;17.47;;;12.07;;
10458;SDS011;5277;48.722;8.736;2022-12-10T15:51:49;17.30;;;11.07;;
10458;SDS011;5277;48.722;8.736;2022-12-10T15:57:13;16.40;;;10.93;;
10458;SDS011;5277;48.722;8.736;2022-12-10T15:59:48;19.47;;;11.60;;
10458;SDS011;5277;48.722;8.736;2022-12-10T16:02:29;17.00;;;10.47;;
10458;SDS011;5277;48.722;8.736;2022-12-10T16:05:28;16.10;;;10.27;;
10458;SDS011;5277;48.722;8.736;2022-12-10T16:08:05;14.97;;;9.93;;
10458;SDS011;5277;48.722;8.736;2022-12-10T16:10:49;17.33;;;10.93;;
10458;SDS011;5277;48.722;8.736;2022-12-10T16:16:37;14.57;;;9.53;;
10458;SDS011;5277;48.722;8.736;2022-12-10T16:19:07;15.97;;;10.93;;
10458;SDS011;5277;48.722;8.736;2022-12-10T16:21:36;14.33;;;10.10;;
10458;SDS011;5277;48.722;8.736;2022-12-10T16:24:06;14.67;;;10.30;;
10458;SDS011;5277;48.722;8.736;2022-12-10T16:26:33;16.87;;;10.43;;
10458;SDS011;5277;48.722;8.736;2022-12-10T16:28:59;15.43;;;9.07;;
10458;SDS011;5277;48.722;8.736;2022-12-10T16:31:25;13.20;;;8.97;;
10458;SDS011;5277;48.722;8.736;2022-12-10T16:33:50;14.27;;;8.90;;
10458;SDS011;5277;48.722;8.736;2022-12-10T16:36:17;15.27;;;9.47;;
10458;SDS011;5277;48.722;8.736;2022-12-10T16:38:43;17.10;;;8.63;;
10458;SDS011;5277;48.722;8.736;2022-12-10T16:41:19;13.93;;;9.30;;
10458;SDS011;5277;48.722;8.736;2022-12-10T16:43:47;13.43;;;9.63;;
10458;SDS011;5277;48.722;8.736;2022-12-10T16:46:12;13.43;;;8.70;;
10458;SDS011;5277;48.722;8.736;2022-12-10T16:48:38;17.70;;;9.80;;
10458;SDS011;5277;48.722;8.736;2022-12-10T16:51:05;16.00;;;9.90;;
10458;SDS011;5277;48.722;8.736;2022-12-10T16:53:50;16.80;;;11.57;;
10458;SDS011;5277;48.722;8.736;2022-12-10T16:56:16;19.80;;;11.17;;
10458;SDS011;5277;48.722;8.736;2022-12-10T16:58:45;15.20;;;10.77;;
10458;SDS011;5277;48.722;8.736;2022-12-10T17:01:23;15.40;;;10.37;;
10458;SDS011;5277;48.722;8.736;2022-12-10T17:03:52;16.97;;;10.67;;
10458;SDS011;5277;48.722;8.736;2022-12-10T17:06:18;13.17;;;8.40;;
10458;SDS011;5277;48.722;8.736;2022-12-10T17:08:45;15.77;;;9.77;;
10458;SDS011;5277;48.722;8.736;2022-12-10T17:11:15;16.00;;;10.40;;
10458;SDS011;5277;48.722;8.736;2022-12-10T17:14:17;15.43;;;9.83;;
10458;SDS011;5277;48.722;8.736;2022-12-10T17:16:54;20.37;;;10.00;;
10458;SDS011;5277;48.722;8.736;2022-12-10T17:19:22;15.87;;;9.73;;
10458;SDS011;5277;48.722;8.736;2022-12-10T17:21:48;13.27;;;9.40;;
10458;SDS011;5277;48.722;8.736;2022-12-10T17:24:14;13.20;;;9.03;;
10458;SDS011;5277;48.722;8.736;2022-12-10T17:29:32;14.30;;;8.87;;
10458;SDS011;5277;48.722;8.736;2022-12-10T17:32:01;12.40;;;8.70;;
10458;SDS011;5277;48.722;8.736;2022-12-10T17:34:28;13.57;;;8.93;;
10458;SDS011;5277;48.722;8.736;2022-12-10T17:36:54;15.10;;;10.33;;
10458;SDS011;5277;48.722;8.736;2022-12-10T17:39:21;14.03;;;9.57;;